Time;durP1;ratioP1;P1;durP2;ratioP2;P2;SDS_P1;SDS_P2;PMS_P1;PMS_P2;Temp;Humidity;BMP_temperature;BMP_pressure;BME280_temperature;BME280_humidity;BME280_pressure;Samples;Min_cycle;Max_cycle;Signal;HPM_P1;HPM_P2
2023/05/14 00:01:24;;;;;;;20.23;10.30;;;13.10;91.20;;;;;;5027737;28;20467;-74
2023/05/14 00:03:50;;;;;;;16.20;11.00;;;13.10;91.30;;;;;;5033710;28;20193;-75
2023/05/14 00:06:15;;;;;;;18.60;10.37;;;13.10;91.30;;;;;;5036970;28;20185;-75
2023/05/14 00:08:41;;;;;;;15.50;9.67;;;13.10;91.30;;;;;;5032687;28;20264;-75
2023/05/14 00:11:07;;;;;;;18.07;10.73;;;13.10;91.30;;;;;;5028807;28;20209;-76
2023/05/14 00:13:34;;;;;;;15.13;9.50;;;13.20;91.20;;;;;;5032493;28;20292;-74
2023/05/14 00:15:59;;;;;;;13.60;9.63;;;13.20;91.20;;;;;;5032212;28;20907;-75
2023/05/14 00:18:25;;;;;;;20.60;11.13;;;13.10;91.10;;;;;;5033898;28;20434;-75
2023/05/14 00:20:53;;;;;;;14.37;9.23;;;13.10;91.10;;;;;;5036713;28;20185;-76
2023/05/14 00:23:20;;;;;;;21.03;11.63;;;13.20;91.00;;;;;;5034670;28;20197;-74
2023/05/14 00:25:45;;;;;;;17.37;10.60;;;13.10;90.90;;;;;;5031518;28;20511;-74
2023/05/14 00:28:11;;;;;;;17.73;10.70;;;13.10;90.80;;;;;;5036377;28;20503;-75
2023/05/14 00:30:36;;;;;;;18.00;12.13;;;13.10;90.70;;;;;;5033787;28;20263;-75
2023/05/14 00:33:02;;;;;;;18.13;11.17;;;13.00;90.70;;;;;;5033340;28;20209;-74
2023/05/14 00:35:28;;;;;;;15.53;10.33;;;13.00;90.80;;;;;;5033625;28;20177;-75
2023/05/14 00:37:54;;;;;;;20.90;11.30;;;13.00;90.90;;;;;;5036863;28;20994;-73
2023/05/14 00:40:21;;;;;;;20.03;12.17;;;13.00;90.90;;;;;;5034170;28;20193;-74
2023/05/14 00:42:46;;;;;;;20.60;11.87;;;13.00;91.00;;;;;;5027702;28;20223;-74
2023/05/14 00:45:12;;;;;;;21.37;12.10;;;13.00;91.00;;;;;;5033744;28;21042;-75
2023/05/14 00:47:39;;;;;;;20.60;12.00;;;13.10;91.10;;;;;;5033569;28;20195;-74
2023/05/14 00:50:05;;;;;;;18.10;11.27;;;13.10;91.00;;;;;;5033082;28;20177;-74
2023/05/14 00:52:31;;;;;;;22.10;12.63;;;13.00;91.00;;;;;;5031385;28;20463;-74
2023/05/14 00:54:58;;;;;;;19.13;11.83;;;13.00;90.90;;;;;;5032361;28;20427;-75
2023/05/14 00:57:23;;;;;;;17.77;11.30;;;12.90;91.00;;;;;;5035048;28;20197;-75
2023/05/14 00:59:49;;;;;;;22.80;12.87;;;12.90;91.10;;;;;;5032453;28;20582;-75
2023/05/14 01:02:15;;;;;;;20.00;11.87;;;12.80;91.30;;;;;;5029712;28;20216;-76
2023/05/14 01:04:40;;;;;;;16.80;9.93;;;12.80;91.40;;;;;;5031482;28;20213;-75
2023/05/14 01:07:37;;;;;;;18.67;11.30;;;12.90;91.40;;;;;;5037299;28;20197;-75
2023/05/14 01:10:22;;;;;;;19.77;12.30;;;12.80;91.30;;;;;;5030393;28;20688;-75
2023/05/14 01:13:12;;;;;;;16.53;10.80;;;12.70;91.10;;;;;;5025028;28;20463;-74
2023/05/14 01:15:39;;;;;;;17.67;11.80;;;12.70;91.30;;;;;;5034706;28;20473;-74
2023/05/14 01:18:08;;;;;;;22.10;13.60;;;12.60;91.30;;;;;;5038060;28;20423;-75
2023/05/14 01:20:34;;;;;;;17.70;11.87;;;12.50;91.40;;;;;;5034532;28;20424;-76
2023/05/14 01:23:00;;;;;;;19.70;11.73;;;12.50;91.50;;;;;;5030330;28;20585;-75
2023/05/14 01:25:26;;;;;;;20.17;11.90;;;12.40;91.50;;;;;;5036006;28;20428;-75
2023/05/14 01:28:05;;;;;;;20.27;12.20;;;12.30;91.60;;;;;;5030636;28;20592;-75
2023/05/14 01:30:38;;;;;;;22.43;13.60;;;12.20;91.70;;;;;;5030544;28;20189;-76
2023/05/14 01:33:12;;;;;;;21.47;12.23;;;12.20;91.80;;;;;;5030678;28;20470;-74
2023/05/14 01:35:39;;;;;;;17.10;11.10;;;12.10;91.90;;;;;;5032216;28;20419;-75
2023/05/14 01:38:09;;;;;;;22.57;12.90;;;12.10;92.00;;;;;;5036811;28;20429;-73
2023/05/14 01:40:36;;;;;;;18.43;11.77;;;12.00;92.00;;;;;;5035412;28;20407;-75
2023/05/14 01:43:03;;;;;;;18.57;11.50;;;12.00;92.00;;;;;;5034527;28;20448;-76
2023/05/14 01:45:29;;;;;;;23.67;12.80;;;12.00;92.00;;;;;;5044502;28;20511;-74
2023/05/14 01:47:55;;;;;;;20.60;11.53;;;11.90;92.10;;;;;;5052894;28;20420;-74
2023/05/14 01:50:21;;;;;;;20.50;11.93;;;11.90;92.10;;;;;;5061902;28;20494;-74
2023/05/14 01:52:52;;;;;;;21.10;12.20;;;11.90;92.10;;;;;;5047814;28;20197;-74
2023/05/14 01:55:17;;;;;;;22.03;13.67;;;11.80;92.10;;;;;;5059588;28;20192;-75
2023/05/14 01:57:43;;;;;;;19.73;11.50;;;11.80;92.10;;;;;;5052151;28;20495;-74
2023/05/14 02:00:09;;;;;;;18.93;12.00;;;11.70;92.10;;;;;;5055212;28;20279;-75
2023/05/14 02:02:35;;;;;;;23.23;12.80;;;11.70;92.20;;;;;;5037151;28;20213;-74
2023/05/14 02:05:01;;;;;;;23.60;12.03;;;11.60;92.30;;;;;;5032846;28;20989;-75
2023/05/14 02:07:26;;;;;;;18.60;11.20;;;11.60;92.30;;;;;;5036853;28;20217;-74
2023/05/14 02:09:52;;;;;;;24.77;14.40;;;11.60;92.40;;;;;;5033443;28;20207;-75
2023/05/14 02:12:17;;;;;;;18.57;11.47;;;11.60;92.40;;;;;;5030201;28;20213;-75
2023/05/14 02:14:43;;;;;;;29.07;12.97;;;11.50;92.30;;;;;;5029625;28;20185;-74
2023/05/14 02:17:09;;;;;;;20.17;11.63;;;11.50;92.30;;;;;;5030742;28;20197;-73
2023/05/14 02:19:34;;;;;;;21.97;13.23;;;11.50;92.30;;;;;;5034101;28;20188;-75
2023/05/14 02:22:00;;;;;;;24.00;13.97;;;11.50;92.30;;;;;;5024852;28;20278;-76
2023/05/14 02:24:26;;;;;;;23.10;12.83;;;11.50;92.50;;;;;;5033228;28;20768;-74
2023/05/14 02:26:51;;;;;;;19.80;11.70;;;11.50;92.50;;;;;;5030796;28;20177;-75
2023/05/14 02:29:17;;;;;;;22.17;12.80;;;11.50;92.70;;;;;;5032230;28;20186;-75
2023/05/14 02:31:43;;;;;;;25.50;13.50;;;11.50;92.70;;;;;;5028066;28;20683;-74
2023/05/14 02:34:09;;;;;;;25.20;12.90;;;11.60;92.70;;;;;;5035517;28;20211;-74
2023/05/14 02:36:34;;;;;;;24.23;12.90;;;11.60;92.80;;;;;;5034343;28;20197;-74
2023/05/14 02:39:00;;;;;;;20.40;12.30;;;11.70;92.70;;;;;;5036128;28;20430;-75
2023/05/14 02:41:26;;;;;;;22.07;13.57;;;11.70;92.60;;;;;;5029496;28;20292;-76
2023/05/14 02:43:52;;;;;;;23.80;13.20;;;11.70;92.60;;;;;;5033374;28;20558;-76
2023/05/14 02:46:18;;;;;;;22.87;12.83;;;11.80;92.60;;;;;;5035188;28;20177;-77
2023/05/14 02:48:44;;;;;;;20.67;12.17;;;11.80;92.50;;;;;;5037835;28;20431;-74
2023/05/14 02:51:09;;;;;;;19.63;12.50;;;11.80;92.40;;;;;;5038658;28;20224;-74
2023/05/14 02:53:35;;;;;;;21.53;12.83;;;11.90;92.40;;;;;;5040396;28;20608;-73
2023/05/14 02:56:01;;;;;;;21.00;11.60;;;11.90;92.30;;;;;;5042353;28;20264;-75
2023/05/14 02:58:26;;;;;;;18.77;11.70;;;11.80;92.20;;;;;;5043168;28;20187;-74
2023/05/14 03:00:52;;;;;;;21.37;12.70;;;11.90;92.30;;;;;;5047689;28;20185;-74
2023/05/14 03:03:18;;;;;;;21.50;12.73;;;12.00;92.20;;;;;;5037585;28;20559;-75
2023/05/14 03:05:44;;;;;;;22.17;12.73;;;12.00;92.10;;;;;;5034893;28;20173;-76
2023/05/14 03:08:10;;;;;;;23.83;12.33;;;11.90;92.00;;;;;;5038874;28;20412;-76
2023/05/14 03:10:35;;;;;;;19.10;11.67;;;11.60;91.50;;;;;;5034549;28;20178;-76
2023/05/14 03:13:01;;;;;;;18.63;10.70;;;11.50;91.60;;;;;;5030585;28;20209;-75
2023/05/14 03:15:27;;;;;;;18.00;11.17;;;11.60;91.70;;;;;;5034336;28;20193;-73
2023/05/14 03:17:53;;;;;;;19.30;11.20;;;11.60;91.70;;;;;;5037819;28;20181;-76
2023/05/14 03:20:19;;;;;;;22.50;12.50;;;11.70;91.60;;;;;;5035554;28;20181;-76
2023/05/14 03:22:45;;;;;;;17.27;11.00;;;11.70;91.30;;;;;;5030694;28;20212;-76
2023/05/14 03:25:10;;;;;;;19.93;10.90;;;11.70;91.40;;;;;;5037588;28;20463;-77
2023/05/14 03:27:36;;;;;;;17.57;11.53;;;11.70;91.30;;;;;;5033901;28;20785;-74
2023/05/14 03:30:02;;;;;;;18.20;11.50;;;11.80;91.40;;;;;;5040062;28;20510;-74
2023/05/14 03:32:28;;;;;;;18.17;10.60;;;11.80;91.40;;;;;;5041145;28;20205;-74
2023/05/14 03:34:54;;;;;;;20.13;11.43;;;11.90;91.40;;;;;;5044630;28;20424;-74
2023/05/14 03:37:20;;;;;;;18.27;10.50;;;12.00;91.40;;;;;;5041062;28;20434;-76
2023/05/14 03:39:45;;;;;;;20.40;12.90;;;12.10;91.30;;;;;;5036202;28;20431;-76
2023/05/14 03:42:11;;;;;;;17.20;10.57;;;12.00;90.90;;;;;;5046130;28;20215;-76
2023/05/14 03:44:36;;;;;;;18.73;11.20;;;12.00;90.70;;;;;;5038401;28;20223;-74
2023/05/14 03:47:02;;;;;;;22.40;11.00;;;12.00;90.70;;;;;;5036564;28;20224;-75
2023/05/14 03:49:28;;;;;;;19.43;11.90;;;12.00;90.60;;;;;;5037753;28;20188;-76
2023/05/14 03:51:53;;;;;;;17.00;10.83;;;12.00;90.40;;;;;;5030130;28;20209;-73
2023/05/14 03:54:19;;;;;;;21.33;13.17;;;11.50;90.00;;;;;;5036341;28;20197;-76
2023/05/14 03:56:45;;;;;;;19.23;11.13;;;11.40;90.20;;;;;;5032804;28;20532;-76
2023/05/14 03:59:10;;;;;;;18.90;11.30;;;11.30;90.60;;;;;;5036981;28;20679;-74
2023/05/14 04:01:36;;;;;;;20.07;11.10;;;11.30;90.90;;;;;;5038284;28;20259;-74
2023/05/14 04:04:01;;;;;;;21.80;10.90;;;11.30;91.00;;;;;;5039061;28;20228;-75
2023/05/14 04:06:27;;;;;;;18.60;9.97;;;11.30;91.00;;;;;;5038141;28;20308;-75
2023/05/14 04:08:53;;;;;;;18.23;10.40;;;11.30;91.00;;;;;;5032793;28;20182;-74
2023/05/14 04:11:18;;;;;;;15.53;9.70;;;11.50;91.10;;;;;;5029825;28;20687;-74
2023/05/14 04:13:44;;;;;;;16.90;10.20;;;11.60;91.10;;;;;;5032362;28;20358;-76
2023/05/14 04:16:09;;;;;;;16.13;9.90;;;11.70;90.80;;;;;;5032696;28;20185;-75
2023/05/14 04:18:35;;;;;;;15.37;10.33;;;11.80;90.70;;;;;;5032675;28;20181;-75
2023/05/14 04:21:01;;;;;;;18.60;10.60;;;11.80;90.40;;;;;;5030456;28;20284;-74
2023/05/14 04:23:27;;;;;;;18.77;11.33;;;11.90;90.30;;;;;;5032130;28;20209;-76
2023/05/14 04:25:53;;;;;;;18.80;10.87;;;11.80;89.60;;;;;;5034393;28;20422;-75
2023/05/14 04:28:18;;;;;;;16.83;11.00;;;11.70;89.50;;;;;;5037516;28;20511;-74
2023/05/14 04:30:44;;;;;;;16.00;10.23;;;11.80;89.60;;;;;;5043148;28;20178;-74
2023/05/14 04:33:10;;;;;;;17.73;9.87;;;11.90;89.60;;;;;;5033546;28;20186;-75
2023/05/14 04:35:35;;;;;;;16.23;10.20;;;12.00;89.50;;;;;;5035958;28;20235;-73
2023/05/14 04:38:01;;;;;;;17.50;11.20;;;12.10;89.20;;;;;;5041703;28;20533;-73
2023/05/14 04:40:27;;;;;;;17.23;10.40;;;12.10;88.70;;;;;;5039841;28;20180;-74
2023/05/14 04:42:53;;;;;;;23.27;11.70;;;12.20;88.60;;;;;;5048502;28;20453;-74
2023/05/14 04:45:19;;;;;;;23.20;10.63;;;11.90;88.00;;;;;;5057069;28;20208;-76
2023/05/14 04:47:45;;;;;;;15.03;9.83;;;11.80;88.40;;;;;;5053828;28;20189;-74
2023/05/14 04:50:11;;;;;;;16.90;10.60;;;11.80;88.40;;;;;;5061043;28;20184;-74
2023/05/14 04:52:37;;;;;;;21.13;12.00;;;11.70;88.40;;;;;;5057859;28;20467;-74
2023/05/14 04:55:03;;;;;;;19.50;11.70;;;11.70;88.70;;;;;;5046389;28;20451;-74
2023/05/14 04:57:28;;;;;;;23.23;11.87;;;11.60;89.00;;;;;;5054119;28;20957;-74
2023/05/14 04:59:54;;;;;;;23.97;11.87;;;11.40;89.70;;;;;;5057576;28;20511;-72
2023/05/14 05:02:20;;;;;;;22.70;12.93;;;11.40;90.00;;;;;;5053539;28;20347;-72
2023/05/14 05:04:46;;;;;;;18.10;11.93;;;11.30;90.10;;;;;;5053507;28;20211;-73
2023/05/14 05:07:12;;;;;;;19.00;11.20;;;11.30;90.20;;;;;;5036509;28;20437;-73
2023/05/14 05:09:38;;;;;;;17.80;11.20;;;11.20;90.30;;;;;;5031291;28;20181;-72
2023/05/14 05:12:04;;;;;;;18.20;11.63;;;11.10;90.40;;;;;;5031476;28;20456;-73
2023/05/14 05:14:29;;;;;;;22.13;11.80;;;11.00;90.70;;;;;;5032693;28;20185;-74
2023/05/14 05:16:55;;;;;;;17.93;10.77;;;11.10;90.90;;;;;;5032429;28;20474;-74
2023/05/14 05:19:21;;;;;;;18.00;11.03;;;11.20;90.90;;;;;;5032463;28;20795;-72
2023/05/14 05:21:46;;;;;;;15.47;10.17;;;11.30;90.80;;;;;;5032445;28;20741;-74
2023/05/14 05:24:12;;;;;;;16.83;10.70;;;11.50;90.80;;;;;;5032236;28;20754;-72
2023/05/14 05:26:38;;;;;;;20.30;11.20;;;11.70;90.50;;;;;;5032355;28;20177;-72
2023/05/14 05:29:04;;;;;;;18.83;10.60;;;11.60;89.90;;;;;;5032236;28;20217;-74
2023/05/14 05:31:30;;;;;;;16.10;10.03;;;11.70;89.90;;;;;;5032364;28;20216;-74
2023/05/14 05:34:00;;;;;;;20.60;11.43;;;11.60;89.30;;;;;;5032109;28;20419;-72
2023/05/14 05:36:25;;;;;;;22.00;11.40;;;11.50;89.20;;;;;;5030987;28;20466;-73
2023/05/14 05:38:51;;;;;;;17.90;10.00;;;11.50;89.60;;;;;;5032220;28;20448;-74
2023/05/14 05:41:17;;;;;;;20.90;11.93;;;11.70;89.60;;;;;;5031121;28;20228;-73
2023/05/14 05:43:42;;;;;;;20.90;11.20;;;11.50;88.90;;;;;;5031751;28;20251;-73
2023/05/14 05:46:08;;;;;;;16.90;9.90;;;11.40;89.60;;;;;;5032099;28;20494;-75
2023/05/14 05:48:33;;;;;;;22.90;12.20;;;11.50;90.00;;;;;;5032327;28;20181;-74
2023/05/14 05:50:59;;;;;;;20.40;12.50;;;11.40;89.50;;;;;;5032116;28;20268;-74
2023/05/14 05:53:25;;;;;;;20.80;12.30;;;11.20;90.10;;;;;;5031949;28;20654;-73
2023/05/14 05:55:51;;;;;;;18.83;10.50;;;11.00;90.50;;;;;;5032005;28;20185;-73
2023/05/14 05:58:19;;;;;;;18.73;11.80;;;11.30;90.70;;;;;;5032022;28;20203;-74
2023/05/14 06:00:48;;;;;;;17.03;10.97;;;11.50;90.70;;;;;;5032897;28;20181;-73
2023/05/14 06:03:14;;;;;;;15.80;10.23;;;11.70;90.60;;;;;;5033283;28;20426;-73
2023/05/14 06:05:40;;;;;;;19.63;11.17;;;11.80;90.00;;;;;;5032293;28;20506;-73
2023/05/14 06:08:06;;;;;;;17.00;10.37;;;11.90;89.30;;;;;;5036802;28;20419;-72
2023/05/14 06:10:33;;;;;;;18.43;11.33;;;12.00;89.00;;;;;;5035895;28;20185;-74
2023/05/14 06:12:58;;;;;;;20.53;11.50;;;11.70;88.30;;;;;;5037557;28;20203;-72
2023/05/14 06:15:24;;;;;;;20.97;12.50;;;11.50;89.30;;;;;;5035187;28;20833;-75
2023/05/14 06:17:49;;;;;;;21.07;11.00;;;11.40;89.30;;;;;;5035975;28;20189;-75
2023/05/14 06:20:15;;;;;;;16.53;11.00;;;11.60;89.60;;;;;;5035682;28;20220;-73
2023/05/14 06:22:41;;;;;;;17.63;10.43;;;11.70;89.30;;;;;;5034178;28;20209;-75
2023/05/14 06:25:07;;;;;;;19.47;10.60;;;11.90;88.90;;;;;;5035543;28;20470;-73
2023/05/14 06:27:33;;;;;;;21.80;11.60;;;12.00;88.10;;;;;;5035139;28;20192;-74
2023/05/14 06:29:58;;;;;;;19.33;9.40;;;12.20;88.10;;;;;;5039805;28;20416;-73
2023/05/14 06:32:24;;;;;;;19.27;11.10;;;12.30;87.40;;;;;;5039820;28;20234;-74
2023/05/14 06:34:50;;;;;;;14.63;9.50;;;12.20;86.60;;;;;;5047585;28;20192;-74
2023/05/14 06:37:15;;;;;;;19.03;10.20;;;12.10;87.30;;;;;;5049139;28;20243;-74
2023/05/14 06:39:49;;;;;;;18.00;10.43;;;12.20;87.10;;;;;;5044503;28;20189;-73
2023/05/14 06:42:18;;;;;;;16.97;10.27;;;12.40;87.00;;;;;;5036634;28;20205;-73
2023/05/14 06:44:44;;;;;;;17.20;9.57;;;12.60;86.60;;;;;;5034562;28;20479;-74
2023/05/14 06:47:10;;;;;;;20.37;10.60;;;12.70;86.00;;;;;;5036221;28;20459;-74
2023/05/14 06:49:35;;;;;;;19.90;10.63;;;12.80;85.60;;;;;;5035323;28;20464;-75
2023/05/14 06:52:02;;;;;;;17.07;9.57;;;12.70;85.20;;;;;;5039488;28;20205;-74
2023/05/14 06:54:28;;;;;;;16.60;9.23;;;12.80;84.70;;;;;;5043853;28;20275;-77
2023/05/14 06:56:54;;;;;;;19.63;10.50;;;13.00;84.60;;;;;;5036205;28;20957;-74
2023/05/14 06:59:19;;;;;;;18.20;11.27;;;12.70;83.80;;;;;;5036724;28;20436;-76
2023/05/14 07:01:45;;;;;;;18.00;11.37;;;12.60;84.70;;;;;;5035744;28;20205;-76
2023/05/14 07:04:11;;;;;;;17.20;10.37;;;12.40;85.30;;;;;;5053836;28;20205;-74
2023/05/14 07:06:37;;;;;;;17.03;10.07;;;12.60;85.70;;;;;;5042564;28;20184;-75
2023/05/14 07:09:03;;;;;;;13.73;8.93;;;12.80;85.50;;;;;;5036568;28;20185;-74
2023/05/14 07:11:28;;;;;;;17.77;10.83;;;13.10;84.90;;;;;;5030103;28;20202;-74
2023/05/14 07:13:54;;;;;;;17.53;10.30;;;13.30;83.80;;;;;;5036070;28;20431;-74
2023/05/14 07:16:20;;;;;;;17.20;10.70;;;13.40;82.80;;;;;;5042754;28;20195;-75
2023/05/14 07:18:46;;;;;;;16.83;10.60;;;13.40;82.40;;;;;;5035639;28;20458;-75
2023/05/14 07:21:11;;;;;;;16.60;10.07;;;13.40;82.10;;;;;;5031804;28;20216;-74
2023/05/14 07:23:37;;;;;;;18.40;10.33;;;13.50;82.40;;;;;;5033469;28;20696;-74
2023/05/14 07:26:06;;;;;;;17.40;10.67;;;13.60;81.80;;;;;;5040357;28;20189;-74
2023/05/14 07:28:32;;;;;;;16.73;10.00;;;13.50;81.70;;;;;;5032798;28;20206;-74
2023/05/14 07:30:58;;;;;;;21.80;11.90;;;13.60;81.90;;;;;;5038449;28;20827;-73
2023/05/14 07:33:24;;;;;;;19.13;9.93;;;13.60;81.50;;;;;;5034771;28;20416;-74
2023/05/14 07:35:50;;;;;;;17.90;10.30;;;13.70;81.40;;;;;;5039159;28;20181;-75
2023/05/14 07:38:18;;;;;;;20.87;11.93;;;13.80;80.80;;;;;;5037000;28;20413;-74
2023/05/14 07:40:44;;;;;;;16.40;10.40;;;13.70;81.10;;;;;;5032397;28;20499;-73
2023/05/14 07:43:10;;;;;;;19.17;12.20;;;13.80;81.50;;;;;;5030949;28;20519;-74
2023/05/14 07:45:37;;;;;;;14.40;9.90;;;13.80;81.20;;;;;;5032205;28;20196;-73
2023/05/14 07:48:03;;;;;;;14.53;9.33;;;13.80;81.40;;;;;;5034272;28;20182;-73
2023/05/14 07:50:28;;;;;;;17.43;11.73;;;14.00;80.80;;;;;;5033075;28;20511;-74
2023/05/14 07:52:54;;;;;;;16.30;10.37;;;14.00;79.90;;;;;;5029217;28;20213;-75
2023/05/14 07:55:20;;;;;;;16.37;10.33;;;13.80;80.90;;;;;;5033015;28;20186;-73
2023/05/14 07:57:45;;;;;;;13.73;9.03;;;13.70;80.80;;;;;;5033124;28;20173;-74
2023/05/14 08:00:12;;;;;;;17.87;10.57;;;13.90;80.90;;;;;;5027239;28;20236;-74
2023/05/14 08:02:37;;;;;;;16.63;10.17;;;14.20;80.20;;;;;;5030419;28;20210;-74
2023/05/14 08:05:03;;;;;;;17.73;9.70;;;14.60;79.30;;;;;;5043200;28;20882;-74
2023/05/14 08:07:29;;;;;;;18.50;11.60;;;14.90;77.70;;;;;;5040146;28;20280;-75
2023/05/14 08:09:55;;;;;;;16.83;10.70;;;14.50;77.00;;;;;;5033062;28;21001;-74
2023/05/14 08:12:21;;;;;;;20.00;12.20;;;14.30;79.20;;;;;;5030920;28;20827;-74
2023/05/14 08:14:46;;;;;;;19.57;11.33;;;14.00;79.90;;;;;;5030753;28;20927;-75
2023/05/14 08:17:12;;;;;;;20.00;11.97;;;14.10;80.30;;;;;;5037856;28;20189;-75
2023/05/14 08:19:38;;;;;;;22.13;12.37;;;14.00;80.00;;;;;;5039467;28;20597;-76
2023/05/14 08:22:04;;;;;;;20.77;12.70;;;13.70;80.60;;;;;;5040456;28;20481;-73
2023/05/14 08:24:30;;;;;;;22.07;12.00;;;13.80;81.10;;;;;;5039994;28;20226;-73
2023/05/14 08:26:55;;;;;;;21.73;12.73;;;13.80;81.10;;;;;;5040526;28;20420;-73
2023/05/14 08:29:21;;;;;;;16.70;10.60;;;13.70;80.90;;;;;;5034573;28;20564;-73
2023/05/14 08:31:50;;;;;;;19.63;10.17;;;14.00;81.40;;;;;;5033603;28;20606;-74
2023/05/14 08:34:15;;;;;;;20.83;11.07;;;14.50;79.70;;;;;;5033643;28;20193;-76
2023/05/14 08:36:41;;;;;;;14.90;9.63;;;14.80;78.70;;;;;;5033442;28;20479;-73
2023/05/14 08:39:07;;;;;;;19.03;11.87;;;14.90;77.40;;;;;;5033473;28;20576;-73
2023/05/14 08:41:33;;;;;;;14.70;9.50;;;15.10;77.00;;;;;;5032738;28;20197;-73
2023/05/14 08:44:08;;;;;;;17.90;10.67;;;15.10;78.00;;;;;;5032308;28;20690;-73
2023/05/14 08:46:37;;;;;;;15.50;10.00;;;15.50;76.70;;;;;;5032483;28;20431;-73
2023/05/14 08:49:22;;;;;;;17.00;10.80;;;15.80;75.50;;;;;;5032794;28;20420;-74
2023/05/14 08:51:48;;;;;;;15.73;10.43;;;15.90;75.50;;;;;;5028326;28;20510;-74
2023/05/14 08:54:17;;;;;;;18.67;10.23;;;16.20;75.10;;;;;;5032559;28;20419;-73
2023/05/14 08:56:47;;;;;;;19.10;11.33;;;16.40;74.00;;;;;;5032664;28;20177;-73
2023/05/14 08:59:13;;;;;;;15.67;10.27;;;16.30;72.40;;;;;;5032447;28;20822;-75
2023/05/14 09:01:45;;;;;;;17.90;11.30;;;16.00;73.00;;;;;;5032379;28;20454;-74
2023/05/14 09:04:11;;;;;;;18.20;10.20;;;15.60;73.70;;;;;;5032394;28;20709;-73
2023/05/14 09:06:38;;;;;;;18.77;11.80;;;15.60;74.60;;;;;;5032588;28;20461;-72
2023/05/14 09:09:03;;;;;;;21.90;11.30;;;15.50;74.00;;;;;;5032483;28;21114;-74
2023/05/14 09:11:29;;;;;;;19.47;11.53;;;15.50;73.50;;;;;;5032196;28;20543;-74
2023/05/14 09:13:55;;;;;;;23.00;12.40;;;15.00;75.20;;;;;;5031272;28;20183;-73
2023/05/14 09:16:22;;;;;;;20.50;11.87;;;14.90;75.50;;;;;;5033252;28;20190;-73
2023/05/14 09:18:48;;;;;;;23.90;12.13;;;14.90;76.40;;;;;;5032740;28;20423;-73
2023/05/14 09:21:14;;;;;;;20.17;12.10;;;14.90;76.70;;;;;;5032580;28;20466;-73
2023/05/14 09:23:44;;;;;;;21.63;11.50;;;15.10;76.10;;;;;;5032440;28;20676;-73
2023/05/14 09:26:10;;;;;;;22.00;12.60;;;15.70;75.20;;;;;;5032706;28;20424;-74
2023/05/14 09:28:40;;;;;;;24.63;12.60;;;15.80;73.90;;;;;;5032688;28;20454;-73
2023/05/14 09:31:08;;;;;;;19.73;10.83;;;15.90;73.20;;;;;;5031215;28;20447;-74
2023/05/14 09:33:33;;;;;;;22.07;11.40;;;16.00;73.00;;;;;;5033337;28;20442;-75
2023/05/14 09:36:00;;;;;;;18.13;10.13;;;16.10;72.60;;;;;;5031390;28;20435;-73
2023/05/14 09:38:32;;;;;;;23.03;12.50;;;16.20;72.00;;;;;;5033995;28;20169;-74
2023/05/14 09:40:59;;;;;;;17.87;10.80;;;16.30;71.30;;;;;;5033565;28;20482;-76
2023/05/14 09:43:25;;;;;;;16.47;10.13;;;16.00;71.60;;;;;;5032195;28;20440;-75
2023/05/14 09:45:52;;;;;;;16.67;10.57;;;15.90;72.10;;;;;;5033258;28;20480;-74
2023/05/14 09:48:18;;;;;;;15.93;10.47;;;15.80;71.60;;;;;;5035175;28;20415;-74
2023/05/14 09:50:45;;;;;;;19.10;11.83;;;16.10;71.00;;;;;;5034552;28;20412;-73
2023/05/14 09:53:12;;;;;;;18.43;10.87;;;16.00;69.90;;;;;;5036572;28;20466;-73
2023/05/14 09:55:38;;;;;;;14.03;9.00;;;16.00;71.00;;;;;;5035790;28;20779;-73
2023/05/14 09:58:04;;;;;;;17.47;9.47;;;16.20;71.00;;;;;;5059114;28;20414;-75
2023/05/14 10:00:34;;;;;;;17.30;9.80;;;16.40;70.20;;;;;;5059680;28;20411;-76
2023/05/14 10:03:05;;;;;;;17.60;10.70;;;16.50;69.90;;;;;;5051094;28;20519;-74
2023/05/14 10:05:35;;;;;;;19.60;11.57;;;16.70;69.80;;;;;;5037010;28;20597;-74
2023/05/14 10:08:07;;;;;;;18.43;12.00;;;16.30;70.80;;;;;;5037627;28;20450;-74
2023/05/14 10:10:36;;;;;;;16.90;11.00;;;16.50;69.80;;;;;;5039032;28;20418;-74
2023/05/14 10:13:13;;;;;;;17.20;10.33;;;16.40;69.20;;;;;;5034782;28;20459;-77
2023/05/14 10:16:04;;;;;;;15.20;10.13;;;16.50;69.50;;;;;;5046338;28;20427;-75
2023/05/14 10:18:34;;;;;;;17.23;10.50;;;16.50;69.70;;;;;;5042781;28;20465;-79
2023/05/14 10:21:04;;;;;;;16.27;9.73;;;16.50;69.10;;;;;;5050295;28;20430;-75
2023/05/14 10:23:30;;;;;;;16.20;10.03;;;16.10;69.80;;;;;;5036190;28;20432;-75
2023/05/14 10:25:57;;;;;;;19.67;9.70;;;16.40;69.80;;;;;;5048578;28;20432;-74
2023/05/14 10:28:23;;;;;;;12.87;7.80;;;16.30;69.50;;;;;;5041750;28;20180;-74
2023/05/14 10:30:49;;;;;;;13.20;9.10;;;16.40;69.50;;;;;;5046975;28;20428;-75
2023/05/14 10:33:17;;;;;;;14.60;8.33;;;16.80;68.90;;;;;;5039256;28;20439;-75
2023/05/14 10:36:06;;;;;;;12.67;8.03;;;16.90;68.60;;;;;;5037917;28;20264;-75
2023/05/14 10:38:36;;;;;;;11.43;7.73;;;17.20;68.00;;;;;;5043426;28;20434;-74
2023/05/14 10:41:09;;;;;;;14.10;8.00;;;17.40;67.50;;;;;;5033765;28;20923;-75
2023/05/14 10:43:37;;;;;;;11.67;8.13;;;17.40;67.30;;;;;;5039103;28;20467;-75
2023/05/14 10:46:04;;;;;;;15.70;7.93;;;17.80;67.30;;;;;;5041501;28;20421;-74
2023/05/14 10:48:30;;;;;;;13.13;8.13;;;18.10;66.70;;;;;;5035219;28;20635;-74
2023/05/14 10:50:56;;;;;;;12.93;7.90;;;18.20;66.40;;;;;;5034474;28;20475;-75
2023/05/14 10:53:36;;;;;;;14.10;8.07;;;18.30;67.20;;;;;;5036129;28;20427;-75
2023/05/14 10:56:07;;;;;;;14.37;9.13;;;18.70;66.70;;;;;;5040402;28;20415;-75
2023/05/14 10:58:37;;;;;;;14.50;9.40;;;18.50;65.80;;;;;;5036172;28;20500;-74
2023/05/14 11:01:04;;;;;;;15.07;9.70;;;18.20;66.90;;;;;;5033775;28;20439;-74
2023/05/14 11:03:31;;;;;;;11.90;8.00;;;17.70;67.90;;;;;;5032881;28;20484;-74
2023/05/14 11:05:58;;;;;;;11.83;7.60;;;17.80;68.20;;;;;;5035573;28;20499;-75
2023/05/14 11:08:26;;;;;;;11.30;7.77;;;17.70;68.00;;;;;;5045110;28;20454;-75
2023/05/14 11:10:53;;;;;;;11.03;7.90;;;18.00;68.00;;;;;;5038460;28;20442;-76
2023/05/14 11:13:20;;;;;;;16.33;9.33;;;18.10;67.50;;;;;;5031107;28;20437;-75
2023/05/14 11:15:47;;;;;;;18.30;9.60;;;17.70;68.80;;;;;;5039366;28;20416;-76
2023/05/14 11:18:12;;;;;;;14.43;9.40;;;16.80;70.70;;;;;;5042474;28;20459;-75
2023/05/14 11:20:39;;;;;;;16.87;10.63;;;16.70;71.30;;;;;;5038174;28;20440;-75
2023/05/14 11:23:04;;;;;;;15.00;9.40;;;16.70;71.10;;;;;;5040031;28;20197;-75
2023/05/14 11:25:30;;;;;;;16.87;10.60;;;16.60;71.40;;;;;;5045821;28;20550;-75
2023/05/14 11:27:59;;;;;;;15.97;10.30;;;16.60;71.30;;;;;;5039067;28;20177;-74
2023/05/14 11:30:25;;;;;;;16.40;10.50;;;16.00;72.30;;;;;;5044285;28;20189;-75
2023/05/14 11:32:51;;;;;;;15.53;10.30;;;16.00;72.40;;;;;;5042007;28;20470;-73
2023/05/14 11:35:17;;;;;;;16.20;9.10;;;16.30;71.40;;;;;;5048054;28;20200;-74
2023/05/14 11:37:48;;;;;;;12.50;8.63;;;16.70;71.00;;;;;;5046819;28;20186;-73
2023/05/14 11:40:18;;;;;;;12.40;8.50;;;17.20;69.70;;;;;;5043518;28;20467;-75
2023/05/14 11:42:44;;;;;;;11.63;8.17;;;18.10;68.80;;;;;;5040386;28;20553;-74
2023/05/14 11:45:11;;;;;;;13.00;8.70;;;19.20;67.00;;;;;;5044213;28;20492;-74
2023/05/14 11:47:37;;;;;;;12.80;8.10;;;19.00;66.70;;;;;;5045136;28;20424;-75
2023/05/14 11:50:03;;;;;;;11.80;7.57;;;18.90;66.70;;;;;;5049668;28;20508;-75
2023/05/14 11:52:28;;;;;;;11.37;8.40;;;18.80;66.70;;;;;;5042044;28;20474;-74
2023/05/14 11:54:54;;;;;;;11.03;9.07;;;18.60;66.90;;;;;;5047038;28;20192;-75
2023/05/14 11:57:21;;;;;;;14.60;9.00;;;18.20;67.20;;;;;;5046444;28;20207;-74
2023/05/14 11:59:48;;;;;;;12.27;8.87;;;17.00;69.40;;;;;;5043757;28;20189;-76
2023/05/14 12:02:16;;;;;;;13.37;8.10;;;17.20;69.80;;;;;;5037485;28;20498;-74
2023/05/14 12:04:43;;;;;;;12.63;9.00;;;17.50;69.70;;;;;;5044003;28;20476;-75
2023/05/14 12:07:14;;;;;;;12.40;8.43;;;17.70;69.40;;;;;;5041662;28;20429;-74
2023/05/14 12:09:48;;;;;;;11.50;8.63;;;18.10;69.20;;;;;;5034706;28;20428;-75
2023/05/14 12:12:16;;;;;;;10.60;7.30;;;17.80;68.00;;;;;;5028259;28;20464;-74
2023/05/14 12:14:44;;;;;;;10.30;7.63;;;17.90;68.30;;;;;;5033310;28;20432;-75
2023/05/14 12:17:20;;;;;;;12.73;7.70;;;17.60;68.50;;;;;;5041688;28;20428;-76
2023/05/14 12:19:48;;;;;;;12.80;8.57;;;17.90;68.20;;;;;;5033286;28;20458;-75
2023/05/14 12:22:16;;;;;;;11.43;7.60;;;17.60;68.60;;;;;;5034418;28;20462;-75
2023/05/14 12:24:51;;;;;;;12.00;8.50;;;17.70;68.90;;;;;;5040121;28;20490;-75
2023/05/14 12:27:20;;;;;;;10.27;8.20;;;17.70;68.30;;;;;;5033587;28;20439;-75